Ana Sayfa
METAR-TAF:

METAR-TAF

Havaalanları :

Okmulgee, Oklahoma, Amerika Birleşik Devletleri

Enlem: 35-40-05N, Boylam: 095-56-55W, yükseklik: 220 m

Güncel hava durumu gözlemi

Rapor saat 15:35 UTC de 39 dakika önce yapıldı.
Rüzgar güneybatıdan 12 kt ve 18 kt'a kadar ani rüzgarlar
Sıcaklık 33°C
Nem 56%
Basınç 1013 hPa
Görüş mesafesi: 16.1 km
Açık gökyüzü

METAR: KOKM 251535Z AUTO 22012G18KT 10SM CLR 33/23 A2992 RMK AO2 T03260232

Saat: 11:14 (16:14 UTC)


TAF: eksik

4.000'den fazla havaalanı için hava durumu gözlemleri ve tahminleri (METAR ve TAF raporları).

Kullanılabilir istasyonlar harita üzerinde sarı ve kırmızı noktalarla gösterilir.

İstasyonun adını görmek için fareyi noktanın üzerinde gezdirin.

Sonrasında hava gözlem ve tahminlerini görmek için tıklayın.

Haritayı değiştirmek için: yaklaştırmak için siyah artı işaretli yeşil düğmeye ve uzaklaştırmak için de eksi işaretli düğmeye hızla tıklayın; bitişik haritalar için yeşil okları kullanın.


METAR-TAF: